N65DT KMFI-KFSD
Flight info
| Callsign | N65DT |
|---|---|
| Flight time | 1h 25m |
| Altitude | 4500 |
| Route | DCT |
| Aircraft | AEST/L-SDFGRY/S |
Departure
| Time | 2026-04-26 06:02 |
|---|---|
| Airport | Marshfield Municipal Airport (KMFI) |
Arrival
| Time | 2026-04-26 07:28 |
|---|---|
| Airport | Sioux Falls Regional Airport (KFSD) |
| Time | Latitude | Longitude | Altitude | Speed | Heading |
|---|---|---|---|---|---|
| 2026-04-26 05:59 | 44.64051 | -90.18870 | 1259 ft | 0 kts | 92° |
| 2026-04-26 05:59 | 44.64043 | -90.18857 | 1259 ft | 4 kts | 173° |
| 2026-04-26 05:59 | 44.63992 | -90.18942 | 1258 ft | 18 kts | 232° |
| 2026-04-26 06:00 | 44.63896 | -90.19070 | 1261 ft | 17 kts | 257° |
| 2026-04-26 06:00 | 44.63989 | -90.19165 | 1265 ft | 21 kts | 337° |
| 2026-04-26 06:00 | 44.64141 | -90.19254 | 1262 ft | 26 kts | 336° |
| 2026-04-26 06:00 | 44.64290 | -90.19349 | 1266 ft | 13 kts | 336° |
| 2026-04-26 06:01 | 44.64379 | -90.19398 | 1266 ft | 12 kts | 336° |
| 2026-04-26 06:01 | 44.64392 | -90.19374 | 1267 ft | 24 kts | 166° |
| 2026-04-26 06:01 | 44.64005 | -90.19172 | 1261 ft | 89 kts | 158° |
| 2026-04-26 06:01 | 44.63343 | -90.18821 | 1299 ft | 110 kts | 156° |
| 2026-04-26 06:02 | 44.62591 | -90.18467 | 1557 ft | 116 kts | 169° |
| 2026-04-26 06:02 | 44.61778 | -90.18663 | 1795 ft | 126 kts | 204° |
| 2026-04-26 06:02 | 44.61112 | -90.19517 | 2007 ft | 136 kts | 236° |
| 2026-04-26 06:02 | 44.60799 | -90.20782 | 2266 ft | 140 kts | 261° |
| 2026-04-26 06:03 | 44.60655 | -90.22160 | 2477 ft | 145 kts | 263° |
| 2026-04-26 06:03 | 44.60504 | -90.23582 | 2718 ft | 149 kts | 263° |
| 2026-04-26 06:03 | 44.60321 | -90.25095 | 2708 ft | 166 kts | 261° |
| 2026-04-26 06:03 | 44.60113 | -90.26763 | 2694 ft | 176 kts | 261° |
| 2026-04-26 06:04 | 44.59900 | -90.28441 | 2912 ft | 172 kts | 261° |
| 2026-04-26 06:04 | 44.59685 | -90.30084 | 3117 ft | 170 kts | 261° |
| 2026-04-26 06:04 | 44.59471 | -90.31716 | 3315 ft | 170 kts | 261° |
| 2026-04-26 06:04 | 44.59261 | -90.33342 | 3504 ft | 168 kts | 262° |
| 2026-04-26 06:05 | 44.59068 | -90.34926 | 3727 ft | 164 kts | 262° |
| 2026-04-26 06:05 | 44.58858 | -90.36532 | 3930 ft | 165 kts | 262° |
| 2026-04-26 06:05 | 44.58658 | -90.38105 | 4130 ft | 163 kts | 262° |
| 2026-04-26 06:05 | 44.58469 | -90.39650 | 4316 ft | 163 kts | 263° |
| 2026-04-26 06:06 | 44.58281 | -90.41216 | 4487 ft | 163 kts | 262° |
| 2026-04-26 06:06 | 44.58082 | -90.42843 | 4500 ft | 175 kts | 262° |
| 2026-04-26 06:06 | 44.57859 | -90.44539 | 4566 ft | 179 kts | 261° |
| 2026-04-26 06:06 | 44.57622 | -90.46299 | 4554 ft | 188 kts | 261° |
| 2026-04-26 06:07 | 44.57387 | -90.48131 | 4543 ft | 193 kts | 261° |
| 2026-04-26 06:07 | 44.57151 | -90.50006 | 4546 ft | 197 kts | 261° |
| 2026-04-26 06:07 | 44.56897 | -90.51913 | 4530 ft | 200 kts | 261° |
| 2026-04-26 06:07 | 44.56643 | -90.53823 | 4544 ft | 199 kts | 261° |
| 2026-04-26 06:08 | 44.56397 | -90.55739 | 4542 ft | 200 kts | 261° |
| 2026-04-26 06:08 | 44.56146 | -90.57661 | 4542 ft | 201 kts | 262° |
| 2026-04-26 06:08 | 44.55900 | -90.59598 | 4541 ft | 202 kts | 262° |
| 2026-04-26 06:08 | 44.55656 | -90.61550 | 4528 ft | 204 kts | 261° |
| 2026-04-26 06:09 | 44.55400 | -90.63502 | 4544 ft | 204 kts | 261° |
| 2026-04-26 06:09 | 44.55145 | -90.65465 | 4528 ft | 205 kts | 261° |
| 2026-04-26 06:09 | 44.54890 | -90.67425 | 4537 ft | 205 kts | 261° |
| 2026-04-26 06:09 | 44.54627 | -90.69390 | 4536 ft | 206 kts | 261° |
| 2026-04-26 06:10 | 44.54363 | -90.71362 | 4529 ft | 206 kts | 261° |
| 2026-04-26 06:10 | 44.54108 | -90.73337 | 4538 ft | 206 kts | 261° |
| 2026-04-26 06:10 | 44.53847 | -90.75310 | 4544 ft | 206 kts | 261° |
| 2026-04-26 06:10 | 44.53593 | -90.77295 | 4534 ft | 207 kts | 262° |
| 2026-04-26 06:11 | 44.53361 | -90.79281 | 4530 ft | 205 kts | 261° |
| 2026-04-26 06:11 | 44.53094 | -90.81252 | 4533 ft | 206 kts | 259° |
| 2026-04-26 06:11 | 44.52817 | -90.83216 | 4532 ft | 206 kts | 259° |
| 2026-04-26 06:11 | 44.52529 | -90.85185 | 4533 ft | 206 kts | 259° |
| 2026-04-26 06:12 | 44.52262 | -90.87161 | 4534 ft | 206 kts | 261° |
| 2026-04-26 06:12 | 44.52017 | -90.89141 | 4533 ft | 205 kts | 261° |
| 2026-04-26 06:12 | 44.51773 | -90.91086 | 4531 ft | 206 kts | 260° |
| 2026-04-26 06:12 | 44.51516 | -90.93060 | 4532 ft | 206 kts | 260° |
| 2026-04-26 06:13 | 44.51256 | -90.95036 | 4532 ft | 207 kts | 260° |
| 2026-04-26 06:13 | 44.50990 | -90.97012 | 4534 ft | 206 kts | 260° |
| 2026-04-26 06:13 | 44.50723 | -90.98986 | 4531 ft | 206 kts | 260° |
| 2026-04-26 06:13 | 44.50459 | -91.00962 | 4530 ft | 206 kts | 260° |
| 2026-04-26 06:14 | 44.50195 | -91.02932 | 4533 ft | 205 kts | 260° |
| 2026-04-26 06:14 | 44.49928 | -91.04897 | 4533 ft | 205 kts | 260° |
| 2026-04-26 06:14 | 44.49664 | -91.06860 | 4533 ft | 205 kts | 260° |
| 2026-04-26 06:14 | 44.49401 | -91.08823 | 4533 ft | 205 kts | 260° |
| 2026-04-26 06:15 | 44.49139 | -91.10786 | 4534 ft | 205 kts | 260° |
| 2026-04-26 06:15 | 44.48877 | -91.12747 | 4531 ft | 205 kts | 260° |
| 2026-04-26 06:15 | 44.48614 | -91.14712 | 4529 ft | 205 kts | 260° |
| 2026-04-26 06:15 | 44.48352 | -91.16680 | 4530 ft | 206 kts | 260° |
| 2026-04-26 06:16 | 44.48094 | -91.18648 | 4528 ft | 206 kts | 259° |
| 2026-04-26 06:16 | 44.47837 | -91.20618 | 4532 ft | 206 kts | 259° |
| 2026-04-26 06:16 | 44.47572 | -91.22587 | 4531 ft | 206 kts | 259° |
| 2026-04-26 06:16 | 44.47297 | -91.24552 | 4533 ft | 206 kts | 258° |
| 2026-04-26 06:17 | 44.47020 | -91.26517 | 4531 ft | 206 kts | 258° |
| 2026-04-26 06:17 | 44.46743 | -91.28483 | 4533 ft | 206 kts | 258° |
| 2026-04-26 06:17 | 44.46467 | -91.30453 | 4533 ft | 206 kts | 259° |
| 2026-04-26 06:17 | 44.46197 | -91.32420 | 4533 ft | 206 kts | 259° |
| 2026-04-26 06:18 | 44.45931 | -91.34386 | 4526 ft | 206 kts | 259° |
| 2026-04-26 06:18 | 44.45666 | -91.36358 | 4537 ft | 206 kts | 259° |
| 2026-04-26 06:18 | 44.45406 | -91.38299 | 4537 ft | 206 kts | 259° |
| 2026-04-26 06:18 | 44.45139 | -91.40270 | 4539 ft | 207 kts | 259° |
| 2026-04-26 06:19 | 44.44870 | -91.42251 | 4535 ft | 208 kts | 259° |
| 2026-04-26 06:19 | 44.44597 | -91.44236 | 4533 ft | 208 kts | 259° |
| 2026-04-26 06:19 | 44.44319 | -91.46225 | 4535 ft | 208 kts | 259° |
| 2026-04-26 06:19 | 44.44041 | -91.48214 | 4534 ft | 209 kts | 259° |
| 2026-04-26 06:20 | 44.43761 | -91.50211 | 4533 ft | 209 kts | 258° |
| 2026-04-26 06:20 | 44.43465 | -91.52201 | 4534 ft | 209 kts | 258° |
| 2026-04-26 06:20 | 44.43179 | -91.54194 | 4540 ft | 209 kts | 258° |
| 2026-04-26 06:20 | 44.42908 | -91.56195 | 4541 ft | 209 kts | 259° |
| 2026-04-26 06:21 | 44.42644 | -91.58197 | 4541 ft | 210 kts | 259° |
| 2026-04-26 06:21 | 44.42381 | -91.60204 | 4541 ft | 210 kts | 259° |
| 2026-04-26 06:21 | 44.42111 | -91.62208 | 4543 ft | 210 kts | 259° |
| 2026-04-26 06:21 | 44.41833 | -91.64212 | 4541 ft | 210 kts | 258° |
| 2026-04-26 06:22 | 44.41552 | -91.66215 | 4541 ft | 210 kts | 258° |
| 2026-04-26 06:22 | 44.41267 | -91.68213 | 4549 ft | 209 kts | 258° |
| 2026-04-26 06:22 | 44.40982 | -91.70210 | 4552 ft | 210 kts | 258° |
| 2026-04-26 06:22 | 44.40795 | -91.71535 | 4550 ft | 210 kts | 258° |
| 2026-04-26 06:23 | 44.40422 | -91.74217 | 4548 ft | 210 kts | 258° |
| 2026-04-26 06:23 | 44.40240 | -91.75547 | 4546 ft | 210 kts | 258° |
| 2026-04-26 06:23 | 44.39964 | -91.77548 | 4547 ft | 209 kts | 258° |
| 2026-04-26 06:23 | 44.39679 | -91.79542 | 4547 ft | 209 kts | 258° |
| 2026-04-26 06:24 | 44.39394 | -91.81534 | 4549 ft | 209 kts | 258° |
| 2026-04-26 06:24 | 44.39106 | -91.83526 | 4554 ft | 209 kts | 258° |
| 2026-04-26 06:24 | 44.38819 | -91.85521 | 4549 ft | 210 kts | 258° |
| 2026-04-26 06:24 | 44.38537 | -91.87519 | 4550 ft | 209 kts | 258° |
| 2026-04-26 06:25 | 44.38258 | -91.89518 | 4549 ft | 209 kts | 258° |
| 2026-04-26 06:25 | 44.37978 | -91.91513 | 4552 ft | 209 kts | 258° |
| 2026-04-26 06:25 | 44.37696 | -91.93507 | 4548 ft | 209 kts | 258° |
| 2026-04-26 06:25 | 44.37411 | -91.95493 | 4550 ft | 209 kts | 258° |
| 2026-04-26 06:26 | 44.37124 | -91.97484 | 4550 ft | 209 kts | 258° |
| 2026-04-26 06:26 | 44.36838 | -91.99472 | 4558 ft | 209 kts | 258° |
| 2026-04-26 06:26 | 44.36552 | -92.01462 | 4561 ft | 209 kts | 258° |
| 2026-04-26 06:26 | 44.36274 | -92.03427 | 4559 ft | 209 kts | 258° |
| 2026-04-26 06:27 | 44.35990 | -92.05449 | 4557 ft | 209 kts | 258° |
| 2026-04-26 06:27 | 44.35711 | -92.07412 | 4557 ft | 209 kts | 258° |
| 2026-04-26 06:27 | 44.35425 | -92.09403 | 4557 ft | 209 kts | 258° |
| 2026-04-26 06:27 | 44.35136 | -92.11394 | 4556 ft | 209 kts | 258° |
| 2026-04-26 06:28 | 44.34845 | -92.13383 | 4557 ft | 209 kts | 258° |
| 2026-04-26 06:28 | 44.34555 | -92.15377 | 4559 ft | 209 kts | 258° |
| 2026-04-26 06:28 | 44.34263 | -92.17366 | 4563 ft | 209 kts | 257° |
| 2026-04-26 06:28 | 44.33956 | -92.19353 | 4561 ft | 209 kts | 257° |
| 2026-04-26 06:29 | 44.33661 | -92.21341 | 4562 ft | 209 kts | 258° |
| 2026-04-26 06:29 | 44.33376 | -92.23332 | 4559 ft | 209 kts | 258° |
| 2026-04-26 06:29 | 44.33101 | -92.25326 | 4562 ft | 209 kts | 258° |
| 2026-04-26 06:29 | 44.32826 | -92.27320 | 4560 ft | 209 kts | 258° |
| 2026-04-26 06:30 | 44.32544 | -92.29310 | 4562 ft | 209 kts | 258° |
| 2026-04-26 06:30 | 44.32253 | -92.31316 | 4565 ft | 211 kts | 258° |
| 2026-04-26 06:30 | 44.31954 | -92.33334 | 4561 ft | 212 kts | 258° |
| 2026-04-26 06:30 | 44.31656 | -92.35353 | 4563 ft | 213 kts | 258° |
| 2026-04-26 06:31 | 44.31359 | -92.37374 | 4565 ft | 212 kts | 258° |
| 2026-04-26 06:31 | 44.31062 | -92.39396 | 4565 ft | 213 kts | 258° |
| 2026-04-26 06:31 | 44.30766 | -92.41422 | 4561 ft | 213 kts | 258° |
| 2026-04-26 06:31 | 44.30469 | -92.43449 | 4563 ft | 212 kts | 258° |
| 2026-04-26 06:32 | 44.30171 | -92.45465 | 4566 ft | 212 kts | 258° |
| 2026-04-26 06:32 | 44.29878 | -92.47455 | 4563 ft | 212 kts | 258° |
| 2026-04-26 06:32 | 44.29580 | -92.49466 | 4564 ft | 212 kts | 258° |
| 2026-04-26 06:32 | 44.29282 | -92.51483 | 4561 ft | 213 kts | 258° |
| 2026-04-26 06:33 | 44.28985 | -92.53503 | 4564 ft | 212 kts | 258° |
| 2026-04-26 06:33 | 44.28688 | -92.55518 | 4563 ft | 213 kts | 258° |
| 2026-04-26 06:33 | 44.28390 | -92.57546 | 4561 ft | 213 kts | 258° |
| 2026-04-26 06:33 | 44.28091 | -92.59562 | 4569 ft | 212 kts | 258° |
| 2026-04-26 06:34 | 44.27789 | -92.61579 | 4567 ft | 213 kts | 258° |
| 2026-04-26 06:34 | 44.27487 | -92.63597 | 4565 ft | 212 kts | 258° |
| 2026-04-26 06:34 | 44.27185 | -92.65611 | 4564 ft | 212 kts | 258° |
| 2026-04-26 06:34 | 44.26884 | -92.67627 | 4567 ft | 213 kts | 258° |
| 2026-04-26 06:35 | 44.26578 | -92.69653 | 4563 ft | 214 kts | 258° |
| 2026-04-26 06:35 | 44.26267 | -92.71686 | 4568 ft | 215 kts | 258° |
| 2026-04-26 06:35 | 44.25958 | -92.73729 | 4566 ft | 215 kts | 258° |
| 2026-04-26 06:35 | 44.25655 | -92.75771 | 4568 ft | 215 kts | 258° |
| 2026-04-26 06:36 | 44.25356 | -92.77816 | 4566 ft | 215 kts | 258° |
| 2026-04-26 06:36 | 44.25057 | -92.79846 | 4567 ft | 213 kts | 258° |
| 2026-04-26 06:36 | 44.24754 | -92.81876 | 4558 ft | 213 kts | 258° |
| 2026-04-26 06:36 | 44.24448 | -92.83904 | 4556 ft | 214 kts | 258° |
| 2026-04-26 06:37 | 44.24127 | -92.85927 | 4558 ft | 214 kts | 257° |
| 2026-04-26 06:37 | 44.23803 | -92.87952 | 4563 ft | 215 kts | 258° |
| 2026-04-26 06:37 | 44.23489 | -92.89994 | 4554 ft | 215 kts | 258° |
| 2026-04-26 06:37 | 44.23188 | -92.92024 | 4557 ft | 214 kts | 258° |
| 2026-04-26 06:38 | 44.22891 | -92.94059 | 4556 ft | 214 kts | 259° |
| 2026-04-26 06:38 | 44.22596 | -92.96086 | 4559 ft | 213 kts | 258° |
| 2026-04-26 06:38 | 44.22296 | -92.98119 | 4556 ft | 215 kts | 258° |
| 2026-04-26 06:38 | 44.21989 | -93.00158 | 4559 ft | 214 kts | 258° |
| 2026-04-26 06:39 | 44.21677 | -93.02187 | 4556 ft | 215 kts | 258° |
| 2026-04-26 06:39 | 44.21360 | -93.04224 | 4559 ft | 215 kts | 258° |
| 2026-04-26 06:39 | 44.21044 | -93.06267 | 4557 ft | 216 kts | 258° |
| 2026-04-26 06:39 | 44.20734 | -93.08330 | 4552 ft | 219 kts | 258° |
| 2026-04-26 06:40 | 44.20420 | -93.10403 | 4552 ft | 218 kts | 258° |
| 2026-04-26 06:40 | 44.20103 | -93.12456 | 4554 ft | 216 kts | 258° |
| 2026-04-26 06:40 | 44.19783 | -93.14516 | 4552 ft | 219 kts | 258° |
| 2026-04-26 06:40 | 44.19463 | -93.16581 | 4549 ft | 217 kts | 258° |
| 2026-04-26 06:41 | 44.19147 | -93.18628 | 4551 ft | 220 kts | 258° |
| 2026-04-26 06:41 | 44.18824 | -93.20702 | 4551 ft | 218 kts | 258° |
| 2026-04-26 06:41 | 44.18504 | -93.22760 | 4551 ft | 218 kts | 258° |
| 2026-04-26 06:41 | 44.18184 | -93.24825 | 4550 ft | 217 kts | 258° |
| 2026-04-26 06:42 | 44.17870 | -93.26881 | 4550 ft | 217 kts | 258° |
| 2026-04-26 06:42 | 44.17555 | -93.28947 | 4548 ft | 219 kts | 258° |
| 2026-04-26 06:42 | 44.17238 | -93.31027 | 4550 ft | 218 kts | 258° |
| 2026-04-26 06:42 | 44.16916 | -93.33097 | 4549 ft | 220 kts | 257° |
| 2026-04-26 06:43 | 44.16592 | -93.35193 | 4547 ft | 222 kts | 257° |
| 2026-04-26 06:43 | 44.16266 | -93.37272 | 4551 ft | 219 kts | 257° |
| 2026-04-26 06:43 | 44.15935 | -93.39349 | 4549 ft | 220 kts | 257° |
| 2026-04-26 06:43 | 44.15603 | -93.41416 | 4549 ft | 217 kts | 257° |
| 2026-04-26 06:44 | 44.15276 | -93.43470 | 4569 ft | 218 kts | 257° |
| 2026-04-26 06:44 | 44.14952 | -93.45543 | 4566 ft | 219 kts | 257° |
| 2026-04-26 06:44 | 44.14628 | -93.47617 | 4566 ft | 220 kts | 258° |
| 2026-04-26 06:44 | 44.14306 | -93.49695 | 4568 ft | 219 kts | 258° |
| 2026-04-26 06:45 | 44.13988 | -93.51766 | 4569 ft | 219 kts | 257° |
| 2026-04-26 06:45 | 44.13654 | -93.53804 | 4570 ft | 220 kts | 257° |
| 2026-04-26 06:45 | 44.13311 | -93.55903 | 4570 ft | 219 kts | 257° |
| 2026-04-26 06:45 | 44.12986 | -93.57940 | 4570 ft | 219 kts | 257° |
| 2026-04-26 06:46 | 44.12658 | -93.60037 | 4554 ft | 223 kts | 257° |
| 2026-04-26 06:46 | 44.12332 | -93.62136 | 4568 ft | 222 kts | 258° |
| 2026-04-26 06:46 | 44.12006 | -93.64258 | 4563 ft | 225 kts | 258° |
| 2026-04-26 06:46 | 44.11681 | -93.66372 | 4568 ft | 221 kts | 257° |
| 2026-04-26 06:47 | 44.11354 | -93.68455 | 4567 ft | 221 kts | 257° |
| 2026-04-26 06:47 | 44.11024 | -93.70538 | 4565 ft | 219 kts | 257° |
| 2026-04-26 06:47 | 44.10694 | -93.72608 | 4563 ft | 218 kts | 257° |
| 2026-04-26 06:47 | 44.10358 | -93.74672 | 4568 ft | 220 kts | 257° |
| 2026-04-26 06:48 | 44.10025 | -93.76737 | 4574 ft | 219 kts | 257° |
| 2026-04-26 06:48 | 44.09693 | -93.78814 | 4574 ft | 221 kts | 257° |
| 2026-04-26 06:48 | 44.09361 | -93.80906 | 4581 ft | 221 kts | 257° |
| 2026-04-26 06:48 | 44.09028 | -93.82983 | 4572 ft | 221 kts | 257° |
| 2026-04-26 06:49 | 44.08694 | -93.85070 | 4576 ft | 220 kts | 257° |
| 2026-04-26 06:49 | 44.08363 | -93.87138 | 4574 ft | 219 kts | 257° |
| 2026-04-26 06:49 | 44.08027 | -93.89218 | 4570 ft | 221 kts | 257° |
| 2026-04-26 06:49 | 44.07690 | -93.91296 | 4574 ft | 219 kts | 257° |
| 2026-04-26 06:50 | 44.07356 | -93.93381 | 4575 ft | 222 kts | 257° |
| 2026-04-26 06:50 | 44.07021 | -93.95474 | 4572 ft | 222 kts | 257° |
| 2026-04-26 06:50 | 44.06679 | -93.97557 | 4574 ft | 221 kts | 257° |
| 2026-04-26 06:50 | 44.06337 | -93.99641 | 4573 ft | 221 kts | 257° |
| 2026-04-26 06:51 | 44.05998 | -94.01706 | 4574 ft | 218 kts | 257° |
| 2026-04-26 06:51 | 44.05326 | -94.05863 | 4574 ft | 220 kts | 257° |
| 2026-04-26 06:51 | 44.04991 | -94.07956 | 4571 ft | 223 kts | 257° |
| 2026-04-26 06:52 | 44.04655 | -94.10064 | 4573 ft | 223 kts | 257° |
| 2026-04-26 06:52 | 44.04316 | -94.12163 | 4574 ft | 223 kts | 257° |
| 2026-04-26 06:52 | 44.03972 | -94.14269 | 4569 ft | 222 kts | 256° |
| 2026-04-26 06:52 | 44.03624 | -94.16362 | 4571 ft | 223 kts | 256° |
| 2026-04-26 06:53 | 44.03275 | -94.18460 | 4572 ft | 224 kts | 257° |
| 2026-04-26 06:53 | 44.02918 | -94.20559 | 4564 ft | 223 kts | 256° |
| 2026-04-26 06:53 | 44.02565 | -94.22658 | 4561 ft | 224 kts | 256° |
| 2026-04-26 06:53 | 44.02226 | -94.24751 | 4563 ft | 223 kts | 256° |
| 2026-04-26 06:54 | 44.01881 | -94.26868 | 4556 ft | 222 kts | 256° |
| 2026-04-26 06:54 | 44.01546 | -94.28953 | 4561 ft | 219 kts | 256° |
| 2026-04-26 06:54 | 44.01216 | -94.30976 | 4562 ft | 217 kts | 256° |
| 2026-04-26 06:54 | 44.00881 | -94.33031 | 4562 ft | 220 kts | 256° |
| 2026-04-26 06:55 | 44.00544 | -94.35098 | 4558 ft | 219 kts | 256° |
| 2026-04-26 06:55 | 44.00204 | -94.37164 | 4563 ft | 219 kts | 256° |
| 2026-04-26 06:55 | 43.99860 | -94.39241 | 4563 ft | 221 kts | 256° |
| 2026-04-26 06:55 | 43.99513 | -94.41305 | 4559 ft | 219 kts | 256° |
| 2026-04-26 06:56 | 43.99166 | -94.43368 | 4561 ft | 219 kts | 256° |
| 2026-04-26 06:56 | 43.98821 | -94.45415 | 4564 ft | 217 kts | 256° |
| 2026-04-26 06:56 | 43.98479 | -94.47462 | 4566 ft | 220 kts | 256° |
| 2026-04-26 06:56 | 43.98139 | -94.49524 | 4566 ft | 218 kts | 256° |
| 2026-04-26 06:57 | 43.97799 | -94.51587 | 4573 ft | 221 kts | 256° |
| 2026-04-26 06:57 | 43.97457 | -94.53678 | 4563 ft | 222 kts | 256° |
| 2026-04-26 06:57 | 43.97104 | -94.55753 | 4564 ft | 221 kts | 256° |
| 2026-04-26 06:57 | 43.96750 | -94.57832 | 4569 ft | 220 kts | 256° |
| 2026-04-26 06:58 | 43.96410 | -94.59883 | 4562 ft | 218 kts | 256° |
| 2026-04-26 06:58 | 43.96074 | -94.61931 | 4557 ft | 218 kts | 256° |
| 2026-04-26 06:58 | 43.95737 | -94.63978 | 4563 ft | 217 kts | 256° |
| 2026-04-26 06:58 | 43.95396 | -94.66019 | 4561 ft | 218 kts | 255° |
| 2026-04-26 06:59 | 43.95056 | -94.68076 | 4562 ft | 218 kts | 255° |
| 2026-04-26 06:59 | 43.94703 | -94.70115 | 4558 ft | 217 kts | 255° |
| 2026-04-26 06:59 | 43.94346 | -94.72158 | 4561 ft | 218 kts | 255° |
| 2026-04-26 06:59 | 43.93985 | -94.74188 | 4557 ft | 217 kts | 255° |
| 2026-04-26 07:00 | 43.93633 | -94.76230 | 4554 ft | 219 kts | 255° |
| 2026-04-26 07:00 | 43.93287 | -94.78287 | 4558 ft | 218 kts | 256° |
| 2026-04-26 07:00 | 43.92946 | -94.80342 | 4557 ft | 219 kts | 256° |
| 2026-04-26 07:00 | 43.92604 | -94.82407 | 4558 ft | 223 kts | 256° |
| 2026-04-26 07:01 | 43.92247 | -94.84501 | 4558 ft | 222 kts | 256° |
| 2026-04-26 07:01 | 43.91890 | -94.86585 | 4558 ft | 222 kts | 256° |
| 2026-04-26 07:01 | 43.91532 | -94.88650 | 4554 ft | 219 kts | 255° |
| 2026-04-26 07:01 | 43.91159 | -94.90710 | 4563 ft | 222 kts | 255° |
| 2026-04-26 07:02 | 43.90794 | -94.92798 | 4559 ft | 222 kts | 256° |
| 2026-04-26 07:02 | 43.90441 | -94.94900 | 4561 ft | 227 kts | 256° |
| 2026-04-26 07:02 | 43.90101 | -94.97031 | 4559 ft | 225 kts | 256° |
| 2026-04-26 07:02 | 43.89765 | -94.99134 | 4557 ft | 223 kts | 256° |
| 2026-04-26 07:03 | 43.89423 | -95.01219 | 4561 ft | 220 kts | 255° |
| 2026-04-26 07:03 | 43.89074 | -95.03260 | 4561 ft | 219 kts | 255° |
| 2026-04-26 07:03 | 43.88705 | -95.05340 | 4557 ft | 221 kts | 254° |
| 2026-04-26 07:03 | 43.88348 | -95.07368 | 4560 ft | 219 kts | 254° |
| 2026-04-26 07:04 | 43.87990 | -95.09429 | 4564 ft | 222 kts | 254° |
| 2026-04-26 07:04 | 43.87623 | -95.11545 | 4563 ft | 223 kts | 254° |
| 2026-04-26 07:04 | 43.87249 | -95.13620 | 4558 ft | 222 kts | 254° |
| 2026-04-26 07:04 | 43.86879 | -95.15690 | 4560 ft | 220 kts | 255° |
| 2026-04-26 07:05 | 43.86516 | -95.17719 | 4562 ft | 221 kts | 255° |
| 2026-04-26 07:05 | 43.86160 | -95.19799 | 4558 ft | 223 kts | 255° |
| 2026-04-26 07:05 | 43.85812 | -95.21872 | 4557 ft | 221 kts | 255° |
| 2026-04-26 07:05 | 43.85468 | -95.23953 | 4559 ft | 221 kts | 255° |
| 2026-04-26 07:06 | 43.85121 | -95.26034 | 4559 ft | 220 kts | 254° |
| 2026-04-26 07:06 | 43.84756 | -95.28093 | 4559 ft | 220 kts | 254° |
| 2026-04-26 07:06 | 43.84389 | -95.30144 | 4559 ft | 218 kts | 254° |
| 2026-04-26 07:06 | 43.84015 | -95.32174 | 4558 ft | 218 kts | 254° |
| 2026-04-26 07:07 | 43.83654 | -95.34234 | 4562 ft | 221 kts | 255° |
| 2026-04-26 07:07 | 43.83306 | -95.36298 | 4559 ft | 220 kts | 255° |
| 2026-04-26 07:07 | 43.82967 | -95.38375 | 4560 ft | 221 kts | 254° |
| 2026-04-26 07:07 | 43.82612 | -95.40438 | 4558 ft | 220 kts | 253° |
| 2026-04-26 07:08 | 43.82243 | -95.42489 | 4559 ft | 220 kts | 253° |
| 2026-04-26 07:08 | 43.81872 | -95.44527 | 4550 ft | 219 kts | 253° |
| 2026-04-26 07:08 | 43.81503 | -95.46557 | 4550 ft | 216 kts | 253° |
| 2026-04-26 07:08 | 43.81142 | -95.48597 | 4548 ft | 218 kts | 253° |
| 2026-04-26 07:09 | 43.80778 | -95.50641 | 4551 ft | 220 kts | 253° |
| 2026-04-26 07:09 | 43.80427 | -95.52713 | 4554 ft | 223 kts | 253° |
| 2026-04-26 07:09 | 43.80059 | -95.54799 | 4550 ft | 222 kts | 253° |
| 2026-04-26 07:09 | 43.79682 | -95.56873 | 4542 ft | 222 kts | 253° |
| 2026-04-26 07:10 | 43.78532 | -95.63011 | 4567 ft | 220 kts | 254° |
| 2026-04-26 07:11 | 43.77831 | -95.67193 | 4502 ft | 225 kts | 254° |
| 2026-04-26 07:11 | 43.77585 | -95.68613 | 4458 ft | 223 kts | 254° |
| 2026-04-26 07:11 | 43.77209 | -95.70702 | 4330 ft | 225 kts | 254° |
| 2026-04-26 07:11 | 43.76830 | -95.72786 | 4189 ft | 223 kts | 254° |
| 2026-04-26 07:12 | 43.76449 | -95.74872 | 4028 ft | 224 kts | 255° |
| 2026-04-26 07:12 | 43.76067 | -95.76980 | 3899 ft | 227 kts | 255° |
| 2026-04-26 07:12 | 43.75686 | -95.79071 | 3825 ft | 227 kts | 255° |
| 2026-04-26 07:12 | 43.75296 | -95.81179 | 3729 ft | 226 kts | 256° |
| 2026-04-26 07:13 | 43.74920 | -95.83267 | 3622 ft | 222 kts | 256° |
| 2026-04-26 07:13 | 43.74555 | -95.85319 | 3526 ft | 217 kts | 257° |
| 2026-04-26 07:13 | 43.74199 | -95.87318 | 3473 ft | 211 kts | 257° |
| 2026-04-26 07:13 | 43.73849 | -95.89289 | 3370 ft | 213 kts | 257° |
| 2026-04-26 07:14 | 43.73490 | -95.91269 | 3262 ft | 211 kts | 257° |
| 2026-04-26 07:14 | 43.73130 | -95.93237 | 3147 ft | 212 kts | 258° |
| 2026-04-26 07:14 | 43.72773 | -95.95215 | 3037 ft | 210 kts | 258° |
| 2026-04-26 07:14 | 43.72413 | -95.97171 | 2922 ft | 210 kts | 258° |
| 2026-04-26 07:15 | 43.72070 | -95.99107 | 2938 ft | 205 kts | 259° |
| 2026-04-26 07:15 | 43.71738 | -96.01011 | 2946 ft | 204 kts | 259° |
| 2026-04-26 07:15 | 43.71401 | -96.02929 | 2951 ft | 206 kts | 259° |
| 2026-04-26 07:15 | 43.71061 | -96.04856 | 2952 ft | 205 kts | 258° |
| 2026-04-26 07:16 | 43.70716 | -96.06764 | 2957 ft | 205 kts | 258° |
| 2026-04-26 07:16 | 43.70366 | -96.08677 | 2953 ft | 206 kts | 258° |
| 2026-04-26 07:16 | 43.70010 | -96.10585 | 2950 ft | 204 kts | 258° |
| 2026-04-26 07:16 | 43.69666 | -96.12485 | 2953 ft | 203 kts | 258° |
| 2026-04-26 07:17 | 43.69316 | -96.14368 | 2957 ft | 202 kts | 258° |
| 2026-04-26 07:17 | 43.68977 | -96.16257 | 2958 ft | 202 kts | 258° |
| 2026-04-26 07:17 | 43.68633 | -96.18156 | 2955 ft | 205 kts | 258° |
| 2026-04-26 07:17 | 43.68283 | -96.20059 | 2955 ft | 204 kts | 258° |
| 2026-04-26 07:18 | 43.67926 | -96.21964 | 2950 ft | 206 kts | 258° |
| 2026-04-26 07:18 | 43.67585 | -96.23852 | 2958 ft | 204 kts | 258° |
| 2026-04-26 07:18 | 43.67243 | -96.25726 | 2941 ft | 200 kts | 258° |
| 2026-04-26 07:18 | 43.66898 | -96.27570 | 2948 ft | 195 kts | 257° |
| 2026-04-26 07:19 | 43.66557 | -96.29365 | 2951 ft | 192 kts | 257° |
| 2026-04-26 07:19 | 43.66226 | -96.31136 | 2941 ft | 190 kts | 258° |
| 2026-04-26 07:19 | 43.65908 | -96.32895 | 2959 ft | 188 kts | 258° |
| 2026-04-26 07:19 | 43.65582 | -96.34636 | 2942 ft | 188 kts | 258° |
| 2026-04-26 07:20 | 43.65270 | -96.36389 | 2950 ft | 189 kts | 258° |
| 2026-04-26 07:20 | 43.64954 | -96.38148 | 2951 ft | 188 kts | 258° |
| 2026-04-26 07:20 | 43.64634 | -96.39872 | 2944 ft | 183 kts | 258° |
| 2026-04-26 07:20 | 43.64318 | -96.41562 | 2943 ft | 181 kts | 257° |
| 2026-04-26 07:21 | 43.63990 | -96.43221 | 2947 ft | 177 kts | 258° |
| 2026-04-26 07:21 | 43.63685 | -96.44872 | 2943 ft | 177 kts | 258° |
| 2026-04-26 07:21 | 43.63384 | -96.46515 | 2944 ft | 175 kts | 258° |
| 2026-04-26 07:21 | 43.63080 | -96.48135 | 2952 ft | 175 kts | 258° |
| 2026-04-26 07:22 | 43.62780 | -96.49758 | 2945 ft | 173 kts | 259° |
| 2026-04-26 07:22 | 43.62474 | -96.51363 | 2948 ft | 173 kts | 259° |
| 2026-04-26 07:22 | 43.62175 | -96.52979 | 2949 ft | 174 kts | 259° |
| 2026-04-26 07:22 | 43.61880 | -96.54603 | 2945 ft | 173 kts | 259° |
| 2026-04-26 07:23 | 43.61587 | -96.56203 | 2953 ft | 171 kts | 259° |
| 2026-04-26 07:23 | 43.61290 | -96.57806 | 2949 ft | 173 kts | 259° |
| 2026-04-26 07:23 | 43.60989 | -96.59409 | 2949 ft | 172 kts | 259° |
| 2026-04-26 07:23 | 43.60692 | -96.61003 | 2949 ft | 171 kts | 258° |
| 2026-04-26 07:24 | 43.60392 | -96.62584 | 2948 ft | 170 kts | 258° |
| 2026-04-26 07:24 | 43.60094 | -96.64158 | 2950 ft | 170 kts | 258° |
| 2026-04-26 07:24 | 43.59803 | -96.65711 | 2951 ft | 168 kts | 259° |
| 2026-04-26 07:24 | 43.59508 | -96.67264 | 2957 ft | 168 kts | 259° |
| 2026-04-26 07:25 | 43.59230 | -96.68710 | 2908 ft | 144 kts | 259° |
| 2026-04-26 07:25 | 43.58995 | -96.69981 | 2826 ft | 132 kts | 260° |
| 2026-04-26 07:25 | 43.58792 | -96.71213 | 2808 ft | 131 kts | 265° |
| 2026-04-26 07:25 | 43.58720 | -96.72442 | 2825 ft | 125 kts | 277° |
| 2026-04-26 07:26 | 43.58792 | -96.73633 | 2791 ft | 126 kts | 283° |
| 2026-04-26 07:26 | 43.58829 | -96.74803 | 2629 ft | 119 kts | 271° |
| 2026-04-26 07:26 | 43.58629 | -96.75882 | 2483 ft | 114 kts | 252° |
| 2026-04-26 07:26 | 43.58182 | -96.76800 | 2371 ft | 117 kts | 227° |
| 2026-04-26 07:27 | 43.57485 | -96.77324 | 2287 ft | 116 kts | 183° |
| 2026-04-26 07:27 | 43.56775 | -96.76939 | 2111 ft | 111 kts | 120° |
| 2026-04-26 07:27 | 43.56724 | -96.76020 | 1888 ft | 93 kts | 48° |
| 2026-04-26 07:27 | 43.57177 | -96.75441 | 1543 ft | 86 kts | 31° |
| 2026-04-26 07:28 | 43.57627 | -96.75016 | 1428 ft | 70 kts | 33° |
| 2026-04-26 07:28 | 43.57976 | -96.74687 | 1426 ft | 47 kts | 36° |
| 2026-04-26 07:28 | 43.58197 | -96.74470 | 1425 ft | 35 kts | 34° |
| 2026-04-26 07:28 | 43.58407 | -96.74277 | 1425 ft | 36 kts | 35° |
| 2026-04-26 07:29 | 43.58578 | -96.74111 | 1425 ft | 24 kts | 36° |
| 2026-04-26 07:29 | 43.58587 | -96.73975 | 1427 ft | 21 kts | 153° |
| 2026-04-26 07:29 | 43.58446 | -96.73884 | 1426 ft | 24 kts | 154° |
| 2026-04-26 07:29 | 43.58281 | -96.73777 | 1426 ft | 28 kts | 156° |
| 2026-04-26 07:30 | 43.58244 | -96.73669 | 1426 ft | 16 kts | 64° |
| 2026-04-26 07:30 | 43.58330 | -96.73579 | 1426 ft | 17 kts | 0° |
| 2026-04-26 07:30 | 43.58436 | -96.73543 | 1426 ft | 10 kts | 17° |
| 2026-04-26 07:30 | 43.58451 | -96.73540 | 1426 ft | 0 kts | 2° |